createdAt,value
2016-12-13T00:00:43.868Z,1017.07
2016-12-13T00:01:43.846Z,1017.07
2016-12-13T00:02:43.830Z,1017.04
2016-12-13T00:03:43.812Z,1017.03
2016-12-13T00:04:43.794Z,1017.04
2016-12-13T00:05:43.778Z,1017.04
2016-12-13T00:06:43.759Z,1017.04
2016-12-13T00:07:43.743Z,1017.03
2016-12-13T00:08:43.726Z,1017.04
2016-12-13T00:09:43.708Z,1017.06
2016-12-13T00:10:43.690Z,1017.01
2016-12-13T00:11:43.673Z,1016.98
2016-12-13T00:12:43.655Z,1016.97
2016-12-13T00:13:43.638Z,1016.94
2016-12-13T00:14:43.822Z,1016.99
2016-12-13T00:15:43.604Z,1016.94
2016-12-13T00:16:43.585Z,1016.93
2016-12-13T00:17:43.568Z,1016.92
2016-12-13T00:18:43.550Z,1016.9
2016-12-13T00:19:43.534Z,1016.89
2016-12-13T00:20:43.517Z,1016.89
2016-12-13T00:21:43.498Z,1016.88
2016-12-13T00:22:43.480Z,1016.88
2016-12-13T00:23:43.463Z,1016.87
2016-12-13T00:24:43.444Z,1016.89
2016-12-13T00:25:43.428Z,1016.91
2016-12-13T00:26:43.412Z,1016.84
2016-12-13T00:27:43.393Z,1016.88
2016-12-13T00:28:43.376Z,1016.88
2016-12-13T00:29:43.358Z,1016.88
2016-12-13T00:30:43.342Z,1016.88
2016-12-13T00:31:43.326Z,1016.85
2016-12-13T00:32:43.305Z,1016.86
2016-12-13T00:33:43.288Z,1016.79
2016-12-13T00:34:43.270Z,1016.84
2016-12-13T00:35:43.251Z,1016.79
2016-12-13T00:36:43.236Z,1016.76
2016-12-13T00:37:43.216Z,1016.84
2016-12-13T00:38:43.200Z,1016.79
2016-12-13T00:39:43.181Z,1016.76
2016-12-13T00:40:43.164Z,1016.76
2016-12-13T00:41:43.146Z,1016.73
2016-12-13T00:42:43.130Z,1016.75
2016-12-13T00:43:43.112Z,1016.72
2016-12-13T00:44:43.094Z,1016.66
2016-12-13T00:45:43.078Z,1016.68
2016-12-13T00:46:43.056Z,1016.69
2016-12-13T00:47:43.041Z,1016.64
2016-12-13T00:48:43.022Z,1016.67
2016-12-13T00:49:43.004Z,1016.65
2016-12-13T00:50:42.987Z,1016.63
2016-12-13T00:51:42.969Z,1016.63
2016-12-13T00:52:42.952Z,1016.63
2016-12-13T00:53:42.934Z,1016.59
2016-12-13T00:54:42.917Z,1016.62
2016-12-13T00:55:42.898Z,1016.57
2016-12-13T00:56:42.882Z,1016.6
2016-12-13T00:57:42.863Z,1016.55
2016-12-13T00:58:42.848Z,1016.56
2016-12-13T00:59:42.828Z,1016.53
2016-12-13T01:00:42.810Z,1016.47
2016-12-13T01:01:42.793Z,1016.52
2016-12-13T01:02:42.775Z,1016.49
2016-12-13T01:03:42.757Z,1016.52
2016-12-13T01:04:42.739Z,1016.48
2016-12-13T01:05:42.720Z,1016.48
2016-12-13T01:06:42.705Z,1016.49
2016-12-13T01:07:42.686Z,1016.45
2016-12-13T01:08:42.666Z,1016.49
2016-12-13T01:09:42.650Z,1016.46
2016-12-13T01:10:42.633Z,1016.44
2016-12-13T01:11:42.615Z,1016.45
2016-12-13T01:12:42.597Z,1016.45
2016-12-13T01:13:42.580Z,1016.42
2016-12-13T01:14:42.562Z,1016.41
2016-12-13T01:15:42.544Z,1016.42
2016-12-13T01:16:42.526Z,1016.48
2016-12-13T01:17:42.511Z,1016.45
2016-12-13T01:18:42.491Z,1016.49
2016-12-13T01:19:42.472Z,1016.42
2016-12-13T01:20:42.455Z,1016.44
2016-12-13T01:21:42.438Z,1016.46
2016-12-13T01:22:42.421Z,1016.49
2016-12-13T01:23:42.402Z,1016.44
2016-12-13T01:24:42.384Z,1016.38
2016-12-13T01:25:42.366Z,1016.43
2016-12-13T01:26:42.348Z,1016.39
2016-12-13T01:27:42.333Z,1016.4
2016-12-13T01:28:42.313Z,1016.43
2016-12-13T01:29:42.298Z,1016.39
2016-12-13T01:30:42.277Z,1016.37
2016-12-13T01:31:42.263Z,1016.39
2016-12-13T01:32:42.243Z,1016.38
2016-12-13T01:33:42.237Z,1016.37
2016-12-13T01:34:42.207Z,1016.42
2016-12-13T01:35:42.188Z,1016.4
2016-12-13T01:36:42.176Z,1016.39
2016-12-13T01:37:42.158Z,1016.38
2016-12-13T01:38:42.136Z,1016.36
2016-12-13T01:39:42.118Z,1016.35
2016-12-13T01:40:42.101Z,1016.36
2016-12-13T01:41:42.084Z,1016.37
2016-12-13T01:42:42.066Z,1016.34
2016-12-13T01:43:42.048Z,1016.35
2016-12-13T01:44:42.031Z,1016.36
2016-12-13T01:45:42.011Z,1016.36
2016-12-13T01:46:41.994Z,1016.37
2016-12-13T01:47:41.976Z,1016.38
2016-12-13T01:48:41.961Z,1016.37
2016-12-13T01:49:41.943Z,1016.33
2016-12-13T01:50:41.924Z,1016.32
2016-12-13T01:51:41.907Z,1016.31
2016-12-13T01:52:41.889Z,1016.31
2016-12-13T01:53:41.874Z,1016.35
2016-12-13T01:54:41.859Z,1016.26
2016-12-13T01:55:41.840Z,1016.29
2016-12-13T01:56:41.820Z,1016.21
2016-12-13T01:57:41.805Z,1016.24
2016-12-13T01:58:41.784Z,1016.28
2016-12-13T01:59:41.765Z,1016.25
2016-12-13T02:00:41.748Z,1016.25
2016-12-13T02:01:41.731Z,1016.24
2016-12-13T02:02:41.713Z,1016.21
2016-12-13T02:03:41.694Z,1016.24
2016-12-13T02:04:41.677Z,1016.24
2016-12-13T02:05:41.660Z,1016.19
2016-12-13T02:06:41.641Z,1016.18
2016-12-13T02:07:41.622Z,1016.14
2016-12-13T02:08:41.606Z,1016.16
2016-12-13T02:09:41.588Z,1016.16
2016-12-13T02:10:41.568Z,1016.15
2016-12-13T02:11:41.551Z,1016.14
2016-12-13T02:12:41.536Z,1016.14
2016-12-13T02:13:41.517Z,1016.15
2016-12-13T02:14:41.499Z,1016.08
2016-12-13T02:15:41.481Z,1016.06
2016-12-13T02:16:41.465Z,1016.04
2016-12-13T02:17:41.446Z,1016.06
2016-12-13T02:18:41.427Z,1016.09
2016-12-13T02:19:41.411Z,1016.03
2016-12-13T02:20:41.393Z,1016.04
2016-12-13T02:21:41.373Z,1016.03
2016-12-13T02:22:41.359Z,1016.01
2016-12-13T02:23:41.338Z,1016.03
2016-12-13T02:24:41.322Z,1015.99
2016-12-13T02:25:41.304Z,1015.98
2016-12-13T02:26:41.288Z,1015.97
2016-12-13T02:27:41.268Z,1015.98
2016-12-13T02:28:41.252Z,1015.97
2016-12-13T02:29:41.237Z,1015.94
2016-12-13T02:30:41.215Z,1015.91
2016-12-13T02:31:41.198Z,1015.93
2016-12-13T02:32:41.177Z,1015.9
2016-12-13T02:33:41.161Z,1015.9
2016-12-13T02:34:41.143Z,1015.9
2016-12-13T02:35:41.124Z,1015.86
2016-12-13T02:36:41.106Z,1015.87
2016-12-13T02:37:41.091Z,1015.88
2016-12-13T02:38:41.071Z,1015.92
2016-12-13T02:39:41.053Z,1015.83
2016-12-13T02:40:41.033Z,1015.84
2016-12-13T02:41:41.018Z,1015.85
2016-12-13T02:42:41.000Z,1015.83
2016-12-13T02:43:40.980Z,1015.79
2016-12-13T02:44:40.963Z,1015.83
2016-12-13T02:45:40.945Z,1015.79
2016-12-13T02:46:40.928Z,1015.82
2016-12-13T02:47:40.908Z,1015.81
2016-12-13T02:48:40.890Z,1015.76
2016-12-13T02:49:40.873Z,1015.77
2016-12-13T02:50:40.855Z,1015.78
2016-12-13T02:51:40.835Z,1015.76
2016-12-13T02:52:40.818Z,1015.78
2016-12-13T02:53:40.799Z,1015.74
2016-12-13T02:54:40.782Z,1015.75
2016-12-13T02:55:40.762Z,1015.78
2016-12-13T02:56:40.745Z,1015.8
2016-12-13T02:57:40.726Z,1015.74
2016-12-13T02:58:40.707Z,1015.79
2016-12-13T02:59:40.689Z,1015.86
2016-12-13T03:00:40.673Z,1015.87
2016-12-13T03:01:40.654Z,1015.86
2016-12-13T03:02:40.635Z,1015.82
2016-12-13T03:03:40.618Z,1015.85
2016-12-13T03:04:40.599Z,1015.81
2016-12-13T03:05:40.579Z,1015.86
2016-12-13T03:06:40.635Z,1015.83
2016-12-13T03:07:40.542Z,1015.8
2016-12-13T03:08:40.526Z,1015.8
2016-12-13T03:09:40.505Z,1015.8
2016-12-13T03:10:40.488Z,1015.81
2016-12-13T03:11:40.469Z,1015.78
2016-12-13T03:12:40.452Z,1015.82
2016-12-13T03:13:40.431Z,1015.78
2016-12-13T03:14:40.412Z,1015.77
2016-12-13T03:15:40.397Z,1015.8
2016-12-13T03:16:40.375Z,1015.76
2016-12-13T03:17:40.359Z,1015.75
2016-12-13T03:18:40.343Z,1015.78
2016-12-13T03:19:40.328Z,1015.76
2016-12-13T03:20:40.305Z,1015.74
2016-12-13T03:21:40.284Z,1015.72
2016-12-13T03:22:40.267Z,1015.71
2016-12-13T03:23:40.248Z,1015.7
2016-12-13T03:24:40.231Z,1015.69
2016-12-13T03:25:40.213Z,1015.71
2016-12-13T03:26:40.195Z,1015.64
2016-12-13T03:27:40.175Z,1015.68
2016-12-13T03:28:40.156Z,1015.65
2016-12-13T03:29:40.140Z,1015.68
2016-12-13T03:30:40.119Z,1015.67
2016-12-13T03:31:40.103Z,1015.69
2016-12-13T03:32:40.084Z,1015.71
2016-12-13T03:33:40.068Z,1015.71
2016-12-13T03:34:40.047Z,1015.72
2016-12-13T03:35:40.030Z,1015.73
2016-12-13T03:36:40.012Z,1015.68
2016-12-13T03:37:39.992Z,1015.66
2016-12-13T03:38:39.972Z,1015.68
2016-12-13T03:39:39.954Z,1015.69
2016-12-13T03:40:39.938Z,1015.72
2016-12-13T03:41:39.919Z,1015.71
2016-12-13T03:42:39.900Z,1015.74
2016-12-13T03:43:39.881Z,1015.73
2016-12-13T03:44:39.865Z,1015.69
2016-12-13T03:45:39.843Z,1015.73
2016-12-13T03:46:39.825Z,1015.74
2016-12-13T03:47:39.808Z,1015.7
2016-12-13T03:48:39.792Z,1015.72
2016-12-13T03:49:39.770Z,1015.7
2016-12-13T03:50:39.753Z,1015.72
2016-12-13T03:51:39.735Z,1015.7
2016-12-13T03:52:39.716Z,1015.69
2016-12-13T03:53:39.699Z,1015.64
2016-12-13T03:54:39.680Z,1015.67
2016-12-13T03:55:39.662Z,1015.63
2016-12-13T03:56:39.643Z,1015.68
2016-12-13T03:57:39.626Z,1015.66
2016-12-13T03:58:39.608Z,1015.59
2016-12-13T03:59:39.591Z,1015.6
2016-12-13T04:00:39.570Z,1015.59
2016-12-13T04:01:39.553Z,1015.63
2016-12-13T04:02:39.534Z,1015.59
2016-12-13T04:03:39.515Z,1015.6
2016-12-13T04:04:39.497Z,1015.57
2016-12-13T04:05:39.480Z,1015.54
2016-12-13T04:06:39.462Z,1015.57
2016-12-13T04:07:39.449Z,1015.59
2016-12-13T04:08:39.423Z,1015.58
2016-12-13T04:09:39.413Z,1015.53
2016-12-13T04:10:39.389Z,1015.54
2016-12-13T04:11:39.370Z,1015.53
2016-12-13T04:12:39.353Z,1015.53
2016-12-13T04:13:39.335Z,1015.49
2016-12-13T04:14:39.317Z,1015.49
2016-12-13T04:15:39.298Z,1015.52
2016-12-13T04:16:39.279Z,1015.53
2016-12-13T04:17:39.273Z,1015.52
2016-12-13T04:18:39.243Z,1015.51
2016-12-13T04:19:39.225Z,1015.49
2016-12-13T04:20:39.207Z,1015.5
2016-12-13T04:21:39.190Z,1015.49
2016-12-13T04:22:39.170Z,1015.49
2016-12-13T04:23:39.153Z,1015.51
2016-12-13T04:24:39.136Z,1015.43
2016-12-13T04:25:39.116Z,1015.46
2016-12-13T04:26:39.098Z,1015.45
2016-12-13T04:27:39.078Z,1015.47
2016-12-13T04:28:39.061Z,1015.45
2016-12-13T04:29:39.042Z,1015.46
2016-12-13T04:30:39.024Z,1015.48
2016-12-13T04:31:39.005Z,1015.45
2016-12-13T04:32:38.989Z,1015.46
2016-12-13T04:33:38.994Z,1015.45
2016-12-13T04:34:38.952Z,1015.44
2016-12-13T04:35:38.935Z,1015.46
2016-12-13T04:36:38.916Z,1015.39
2016-12-13T04:37:38.896Z,1015.42
2016-12-13T04:38:38.879Z,1015.44
2016-12-13T04:39:38.863Z,1015.38
2016-12-13T04:40:38.844Z,1015.37
2016-12-13T04:41:38.827Z,1015.4
2016-12-13T04:42:38.807Z,1015.41
2016-12-13T04:43:38.789Z,1015.39
2016-12-13T04:44:38.769Z,1015.39
2016-12-13T04:45:38.752Z,1015.39
2016-12-13T04:46:38.735Z,1015.36
2016-12-13T04:47:38.717Z,1015.36
2016-12-13T04:48:38.697Z,1015.35
2016-12-13T04:49:38.686Z,1015.34
2016-12-13T04:50:38.662Z,1015.36
2016-12-13T04:51:38.643Z,1015.34
2016-12-13T04:52:38.625Z,1015.35
2016-12-13T04:53:38.606Z,1015.37
2016-12-13T04:54:38.591Z,1015.35
2016-12-13T04:55:38.571Z,1015.37
2016-12-13T04:56:38.551Z,1015.34
2016-12-13T04:57:38.536Z,1015.34
2016-12-13T04:58:38.516Z,1015.34
2016-12-13T04:59:38.524Z,1015.35
2016-12-13T05:00:38.482Z,1015.34
2016-12-13T05:01:38.462Z,1015.32
2016-12-13T05:02:38.449Z,1015.35
2016-12-13T05:03:38.428Z,1015.35
2016-12-13T05:04:38.408Z,1015.34
2016-12-13T05:05:38.393Z,1015.33
2016-12-13T05:06:38.373Z,1015.32
2016-12-13T05:07:38.360Z,1015.36
2016-12-13T05:08:38.339Z,1015.35
2016-12-13T05:09:38.325Z,1015.34
2016-12-13T05:10:38.312Z,1015.3
2016-12-13T05:11:38.282Z,1015.34
2016-12-13T05:12:38.266Z,1015.34
2016-12-13T05:13:38.248Z,1015.33
2016-12-13T05:14:38.230Z,1015.34
2016-12-13T05:15:38.209Z,1015.36
2016-12-13T05:16:38.191Z,1015.34
2016-12-13T05:17:38.175Z,1015.27
2016-12-13T05:18:38.155Z,1015.32
2016-12-13T05:19:38.136Z,1015.31
2016-12-13T05:20:38.115Z,1015.31
2016-12-13T05:21:38.100Z,1015.29
2016-12-13T05:22:38.081Z,1015.3
2016-12-13T05:23:38.064Z,1015.29
2016-12-13T05:24:38.046Z,1015.3
2016-12-13T05:25:38.026Z,1015.28
2016-12-13T05:26:38.009Z,1015.29
2016-12-13T05:27:37.990Z,1015.3
2016-12-13T05:28:37.971Z,1015.33
2016-12-13T05:29:37.953Z,1015.25
2016-12-13T05:30:37.937Z,1015.26
2016-12-13T05:31:37.918Z,1015.26
2016-12-13T05:32:37.900Z,1015.29
2016-12-13T05:33:37.882Z,1015.25
2016-12-13T05:34:37.868Z,1015.24
2016-12-13T05:35:37.845Z,1015.25
2016-12-13T05:36:37.828Z,1015.18
2016-12-13T05:37:37.810Z,1015.21
2016-12-13T05:38:37.791Z,1015.23
2016-12-13T05:39:37.775Z,1015.2
2016-12-13T05:40:37.755Z,1015.23
2016-12-13T05:41:37.737Z,1015.27
2016-12-13T05:42:37.718Z,1015.27
2016-12-13T05:43:37.701Z,1015.33
2016-12-13T05:44:37.684Z,1015.35
2016-12-13T05:45:37.666Z,1015.32
2016-12-13T05:46:37.648Z,1015.31
2016-12-13T05:47:37.630Z,1015.35
2016-12-13T05:48:37.612Z,1015.29
2016-12-13T05:49:37.594Z,1015.29
2016-12-13T05:50:37.576Z,1015.28
2016-12-13T05:51:37.557Z,1015.28
2016-12-13T05:52:37.538Z,1015.33
2016-12-13T05:53:37.519Z,1015.29
2016-12-13T05:54:37.503Z,1015.24
2016-12-13T05:55:37.488Z,1015.27
2016-12-13T05:56:37.470Z,1015.23
2016-12-13T05:57:37.448Z,1015.25
2016-12-13T05:58:37.431Z,1015.28
2016-12-13T05:59:37.413Z,1015.26
2016-12-13T06:00:37.397Z,1015.23
2016-12-13T06:01:37.377Z,1015.28
2016-12-13T06:02:37.360Z,1015.25
2016-12-13T06:03:37.360Z,1015.25
2016-12-13T06:04:37.322Z,1015.25
2016-12-13T06:05:37.308Z,1015.25
2016-12-13T06:06:37.286Z,1015.27
2016-12-13T06:07:37.271Z,1015.26
2016-12-13T06:08:37.251Z,1015.27
2016-12-13T06:09:37.233Z,1015.27
2016-12-13T06:10:37.216Z,1015.3
2016-12-13T06:11:37.198Z,1015.28
2016-12-13T06:12:37.179Z,1015.27
2016-12-13T06:13:37.163Z,1015.28
2016-12-13T06:14:37.142Z,1015.29
2016-12-13T06:15:37.327Z,1015.36
2016-12-13T06:16:37.107Z,1015.34
2016-12-13T06:17:37.088Z,1015.35
2016-12-13T06:18:37.072Z,1015.36
2016-12-13T06:19:37.054Z,1015.35
2016-12-13T06:20:37.036Z,1015.38
2016-12-13T06:21:37.019Z,1015.41
2016-12-13T06:22:37.004Z,1015.37
2016-12-13T06:23:37.008Z,1015.35
2016-12-13T06:24:36.981Z,1015.38
2016-12-13T06:25:36.958Z,1015.35
2016-12-13T06:26:36.932Z,1015.39
2016-12-13T06:27:36.916Z,1015.38
2016-12-13T06:28:36.907Z,1015.37
2016-12-13T06:29:36.878Z,1015.36
2016-12-13T06:30:36.858Z,1015.38
2016-12-13T06:31:36.843Z,1015.36
2016-12-13T06:32:36.823Z,1015.36
2016-12-13T06:33:36.808Z,1015.37
2016-12-13T06:34:36.790Z,1015.35
2016-12-13T06:35:36.773Z,1015.34
2016-12-13T06:36:36.754Z,1015.37
2016-12-13T06:37:36.737Z,1015.34
2016-12-13T06:38:36.720Z,1015.32
2016-12-13T06:39:36.704Z,1015.33
2016-12-13T06:40:36.686Z,1015.32
2016-12-13T06:41:36.668Z,1015.35
2016-12-13T06:42:36.651Z,1015.35
2016-12-13T06:43:36.634Z,1015.34
2016-12-13T06:44:36.614Z,1015.34
2016-12-13T06:45:36.598Z,1015.32
2016-12-13T06:46:36.581Z,1015.32
2016-12-13T06:47:36.567Z,1015.37
2016-12-13T06:48:36.546Z,1015.35
2016-12-13T06:49:36.528Z,1015.35
2016-12-13T06:50:36.511Z,1015.36
2016-12-13T06:51:36.493Z,1015.36
2016-12-13T06:52:36.482Z,1015.4
2016-12-13T06:53:36.458Z,1015.41
2016-12-13T06:54:36.440Z,1015.44
2016-12-13T06:55:36.429Z,1015.43
2016-12-13T06:56:36.405Z,1015.47
2016-12-13T06:57:36.390Z,1015.48
2016-12-13T06:58:36.370Z,1015.45
2016-12-13T06:59:36.352Z,1015.45
2016-12-13T07:00:36.334Z,1015.46
2016-12-13T07:01:36.321Z,1015.45
2016-12-13T07:02:36.305Z,1015.43
2016-12-13T07:03:36.284Z,1015.45
2016-12-13T07:04:36.265Z,1015.47
2016-12-13T07:05:36.248Z,1015.46
2016-12-13T07:06:36.233Z,1015.46
2016-12-13T07:07:36.212Z,1015.47
2016-12-13T07:08:36.195Z,1015.45
2016-12-13T07:09:36.178Z,1015.44
2016-12-13T07:10:36.160Z,1015.45
2016-12-13T07:11:36.143Z,1015.45
2016-12-13T07:12:36.125Z,1015.45
2016-12-13T07:13:36.110Z,1015.47
2016-12-13T07:14:36.090Z,1015.44
2016-12-13T07:15:36.073Z,1015.45
2016-12-13T07:16:36.060Z,1015.42
2016-12-13T07:17:36.040Z,1015.45
2016-12-13T07:18:36.026Z,1015.47
2016-12-13T07:19:36.004Z,1015.52
2016-12-13T07:20:35.987Z,1015.49
2016-12-13T07:21:36.020Z,1015.52
2016-12-13T07:22:35.954Z,1015.53
2016-12-13T07:23:35.936Z,1015.52
2016-12-13T07:24:35.919Z,1015.5
2016-12-13T07:25:35.900Z,1015.45
2016-12-13T07:26:35.882Z,1015.47
2016-12-13T07:27:35.869Z,1015.48
2016-12-13T07:28:35.849Z,1015.47
2016-12-13T07:29:35.830Z,1015.49
2016-12-13T07:30:35.812Z,1015.46
2016-12-13T07:31:35.796Z,1015.49
2016-12-13T07:32:35.778Z,1015.52
2016-12-13T07:33:35.759Z,1015.46
2016-12-13T07:34:35.742Z,1015.47
2016-12-13T07:35:35.728Z,1015.5
2016-12-13T07:36:35.707Z,1015.51
2016-12-13T07:37:35.691Z,1015.51
2016-12-13T07:38:35.674Z,1015.53
2016-12-13T07:39:35.656Z,1015.52
2016-12-13T07:40:35.638Z,1015.52
2016-12-13T07:41:35.624Z,1015.51
2016-12-13T07:42:35.606Z,1015.55
2016-12-13T07:43:35.586Z,1015.52
2016-12-13T07:44:35.570Z,1015.52
2016-12-13T07:45:35.553Z,1015.53
2016-12-13T07:46:35.535Z,1015.54
2016-12-13T07:47:35.516Z,1015.55
2016-12-13T07:48:35.549Z,1015.56
2016-12-13T07:49:35.484Z,1015.58
2016-12-13T07:50:35.465Z,1015.57
2016-12-13T07:51:35.448Z,1015.54
2016-12-13T07:52:35.430Z,1015.64
2016-12-13T07:53:35.413Z,1015.6
2016-12-13T07:54:35.395Z,1015.66
2016-12-13T07:55:35.377Z,1015.63
2016-12-13T07:56:35.361Z,1015.6
2016-12-13T07:57:35.344Z,1015.67
2016-12-13T07:58:35.326Z,1015.66
2016-12-13T07:59:35.309Z,1015.63
2016-12-13T08:00:35.290Z,1015.59
2016-12-13T08:01:35.273Z,1015.61
2016-12-13T08:02:35.257Z,1015.65
2016-12-13T08:03:35.239Z,1015.63
2016-12-13T08:04:35.224Z,1015.63
2016-12-13T08:05:35.209Z,1015.65
2016-12-13T08:06:35.188Z,1015.64
2016-12-13T08:07:35.170Z,1015.63
2016-12-13T08:08:35.155Z,1015.68
2016-12-13T08:09:35.135Z,1015.7
2016-12-13T08:10:35.121Z,1015.72
2016-12-13T08:11:35.102Z,1015.7
2016-12-13T08:12:35.084Z,1015.71
2016-12-13T08:13:35.068Z,1015.69
2016-12-13T08:14:35.052Z,1015.69
2016-12-13T08:15:35.235Z,1015.73
2016-12-13T08:16:35.016Z,1015.71
2016-12-13T08:17:34.996Z,1015.7
2016-12-13T08:18:34.981Z,1015.74
2016-12-13T08:19:34.963Z,1015.72
2016-12-13T08:20:34.945Z,1015.73
2016-12-13T08:21:34.929Z,1015.71
2016-12-13T08:22:34.912Z,1015.71
2016-12-13T08:23:34.895Z,1015.72
2016-12-13T08:24:34.877Z,1015.69
2016-12-13T08:25:34.862Z,1015.66
2016-12-13T08:26:34.843Z,1015.68
2016-12-13T08:27:34.827Z,1015.68
2016-12-13T08:28:34.808Z,1015.69
2016-12-13T08:29:34.790Z,1015.66
2016-12-13T08:30:34.773Z,1015.67
2016-12-13T08:31:34.756Z,1015.66
2016-12-13T08:32:34.738Z,1015.69
2016-12-13T08:33:34.722Z,1015.7
2016-12-13T08:34:34.704Z,1015.69
2016-12-13T08:35:34.687Z,1015.72
2016-12-13T08:36:34.670Z,1015.71
2016-12-13T08:37:34.653Z,1015.7
2016-12-13T08:38:34.635Z,1015.68
2016-12-13T08:39:34.619Z,1015.69
2016-12-13T08:40:34.603Z,1015.68
2016-12-13T08:41:34.583Z,1015.68
2016-12-13T08:42:34.567Z,1015.67
2016-12-13T08:43:34.551Z,1015.69
2016-12-13T08:44:34.532Z,1015.65
2016-12-13T08:45:34.515Z,1015.66
2016-12-13T08:46:34.498Z,1015.67
2016-12-13T08:47:34.483Z,1015.66
2016-12-13T08:48:34.468Z,1015.62
2016-12-13T08:49:34.448Z,1015.62
2016-12-13T08:50:34.429Z,1015.61
2016-12-13T08:51:34.412Z,1015.65
2016-12-13T08:52:34.399Z,1015.65
2016-12-13T08:53:34.377Z,1015.63
2016-12-13T08:54:34.361Z,1015.62
2016-12-13T08:55:34.342Z,1015.63
2016-12-13T08:56:34.327Z,1015.63
2016-12-13T08:57:34.309Z,1015.69
2016-12-13T08:58:34.290Z,1015.68
2016-12-13T08:59:34.272Z,1015.69
2016-12-13T09:00:34.256Z,1015.68
2016-12-13T09:01:34.238Z,1015.7
2016-12-13T09:02:34.220Z,1015.73
2016-12-13T09:03:34.203Z,1015.73
2016-12-13T09:04:34.184Z,1015.77
2016-12-13T09:05:34.169Z,1015.77
2016-12-13T09:06:34.150Z,1015.77
2016-12-13T09:07:34.132Z,1015.73
2016-12-13T09:08:34.114Z,1015.77
2016-12-13T09:09:34.097Z,1015.76
2016-12-13T09:10:34.080Z,1015.82
2016-12-13T09:11:34.061Z,1015.78
2016-12-13T09:12:34.045Z,1015.78
2016-12-13T09:13:34.030Z,1015.8
2016-12-13T09:14:34.008Z,1015.79
2016-12-13T09:15:33.992Z,1015.79
2016-12-13T09:16:33.974Z,1015.81
2016-12-13T09:17:33.958Z,1015.81
2016-12-13T09:18:33.938Z,1015.83
2016-12-13T09:19:33.922Z,1015.87
2016-12-13T09:20:33.903Z,1015.85
2016-12-13T09:21:33.886Z,1015.85
2016-12-13T09:22:33.869Z,1015.86
2016-12-13T09:23:33.852Z,1015.82
2016-12-13T09:24:33.836Z,1015.86
2016-12-13T09:25:33.816Z,1015.9
2016-12-13T09:26:33.799Z,1015.9
2016-12-13T09:27:33.783Z,1015.88
2016-12-13T09:28:33.764Z,1015.87
2016-12-13T09:29:33.747Z,1015.88
2016-12-13T09:30:33.728Z,1015.91
2016-12-13T09:31:33.711Z,1015.89
2016-12-13T09:32:33.694Z,1015.9
2016-12-13T09:33:33.676Z,1015.87
2016-12-13T09:34:33.658Z,1015.89
2016-12-13T09:35:33.640Z,1015.96
2016-12-13T09:36:33.623Z,1015.89
2016-12-13T09:37:33.607Z,1015.91
2016-12-13T09:38:33.588Z,1015.87
2016-12-13T09:39:33.571Z,1015.9
2016-12-13T09:40:33.553Z,1015.91
2016-12-13T09:41:33.537Z,1015.87
2016-12-13T09:42:33.516Z,1015.91
2016-12-13T09:43:33.499Z,1015.87
2016-12-13T09:44:33.484Z,1015.91
2016-12-13T09:45:33.464Z,1015.89
2016-12-13T09:46:33.453Z,1015.91
2016-12-13T09:47:33.429Z,1015.89
2016-12-13T09:48:33.411Z,1015.91
2016-12-13T09:49:33.393Z,1015.85
2016-12-13T09:50:33.376Z,1015.86
2016-12-13T09:51:33.357Z,1015.86
2016-12-13T09:52:33.341Z,1015.84
2016-12-13T09:53:33.322Z,1015.84
2016-12-13T09:54:33.302Z,1015.84
2016-12-13T09:55:33.285Z,1015.87
2016-12-13T09:56:33.268Z,1015.86
2016-12-13T09:57:33.250Z,1015.84
2016-12-13T09:58:33.231Z,1015.83
2016-12-13T09:59:33.213Z,1015.88
2016-12-13T10:00:33.195Z,1015.85
2016-12-13T10:01:33.179Z,1015.85
2016-12-13T10:02:33.160Z,1015.85
2016-12-13T10:03:33.142Z,1015.82
2016-12-13T10:04:33.127Z,1015.78
2016-12-13T10:05:33.106Z,1015.81
2016-12-13T10:06:33.089Z,1015.79
2016-12-13T10:07:33.071Z,1015.82
2016-12-13T10:08:33.052Z,1015.74
2016-12-13T10:09:33.037Z,1015.82
2016-12-13T10:10:33.019Z,1015.81
2016-12-13T10:11:33.002Z,1015.79
2016-12-13T10:12:32.981Z,1015.78
2016-12-13T10:13:32.966Z,1015.79
2016-12-13T10:14:32.944Z,1015.75
2016-12-13T10:15:33.131Z,1015.77
2016-12-13T10:16:32.914Z,1015.77
2016-12-13T10:17:32.891Z,1015.77
2016-12-13T10:18:32.875Z,1015.78
2016-12-13T10:19:32.857Z,1015.8
2016-12-13T10:20:32.838Z,1015.79
2016-12-13T10:21:32.820Z,1015.8
2016-12-13T10:22:32.802Z,1015.81
2016-12-13T10:23:32.784Z,1015.76
2016-12-13T10:24:32.766Z,1015.77
2016-12-13T10:25:32.748Z,1015.78
2016-12-13T10:26:32.729Z,1015.74
2016-12-13T10:27:32.714Z,1015.72
2016-12-13T10:28:32.692Z,1015.74
2016-12-13T10:29:32.676Z,1015.73
2016-12-13T10:30:32.657Z,1015.73
2016-12-13T10:31:32.639Z,1015.75
2016-12-13T10:32:32.623Z,1015.74
2016-12-13T10:33:32.603Z,1015.75
2016-12-13T10:34:32.584Z,1015.72
2016-12-13T10:35:32.566Z,1015.76
2016-12-13T10:36:32.547Z,1015.71
2016-12-13T10:37:32.530Z,1015.74
2016-12-13T10:38:32.512Z,1015.67
2016-12-13T10:39:32.493Z,1015.71
2016-12-13T10:40:32.475Z,1015.65
2016-12-13T10:41:32.458Z,1015.66
2016-12-13T10:42:32.439Z,1015.67
2016-12-13T10:43:32.419Z,1015.65
2016-12-13T10:44:32.404Z,1015.63
2016-12-13T10:45:32.384Z,1015.63
2016-12-13T10:46:32.367Z,1015.63
2016-12-13T10:47:32.348Z,1015.63
2016-12-13T10:48:32.330Z,1015.63
2016-12-13T10:49:32.311Z,1015.62
2016-12-13T10:50:32.294Z,1015.61
2016-12-13T10:51:32.275Z,1015.58
2016-12-13T10:52:32.258Z,1015.62
2016-12-13T10:53:32.239Z,1015.62
2016-12-13T10:54:32.223Z,1015.59
2016-12-13T10:55:32.204Z,1015.59
2016-12-13T10:56:32.187Z,1015.55
2016-12-13T10:57:32.167Z,1015.58
2016-12-13T10:58:32.150Z,1015.53
2016-12-13T10:59:32.132Z,1015.56
2016-12-13T11:00:32.112Z,1015.56
2016-12-13T11:01:32.094Z,1015.54
2016-12-13T11:02:32.078Z,1015.51
2016-12-13T11:03:32.060Z,1015.48
2016-12-13T11:04:32.041Z,1015.52
2016-12-13T11:05:32.023Z,1015.51
2016-12-13T11:06:32.004Z,1015.46
2016-12-13T11:07:31.987Z,1015.45
2016-12-13T11:08:31.969Z,1015.46
2016-12-13T11:09:31.952Z,1015.48
2016-12-13T11:10:31.933Z,1015.51
2016-12-13T11:11:31.916Z,1015.44
2016-12-13T11:12:31.899Z,1015.45
2016-12-13T11:13:31.881Z,1015.43
2016-12-13T11:14:31.861Z,1015.4
2016-12-13T11:15:31.842Z,1015.45
2016-12-13T11:16:31.832Z,1015.41
2016-12-13T11:17:31.808Z,1015.39
2016-12-13T11:18:31.792Z,1015.4
2016-12-13T11:19:31.771Z,1015.38
2016-12-13T11:20:31.756Z,1015.38
2016-12-13T11:21:31.737Z,1015.36
2016-12-13T11:22:31.716Z,1015.32
2016-12-13T11:23:31.700Z,1015.31
2016-12-13T11:24:31.683Z,1015.27
2016-12-13T11:25:31.670Z,1015.25
2016-12-13T11:26:31.645Z,1015.3
2016-12-13T11:27:31.628Z,1015.28
2016-12-13T11:28:31.610Z,1015.29
2016-12-13T11:29:31.592Z,1015.23
2016-12-13T11:30:31.577Z,1015.27
2016-12-13T11:31:31.556Z,1015.23
2016-12-13T11:32:31.538Z,1015.29
2016-12-13T11:33:31.523Z,1015.25
2016-12-13T11:34:31.502Z,1015.24
2016-12-13T11:35:31.483Z,1015.27
2016-12-13T11:36:31.466Z,1015.26
2016-12-13T11:37:31.449Z,1015.24
2016-12-13T11:38:31.429Z,1015.24
2016-12-13T11:39:31.412Z,1015.24
2016-12-13T11:40:31.394Z,1015.21
2016-12-13T11:41:31.376Z,1015.23
2016-12-13T11:42:31.357Z,1015.21
2016-12-13T11:43:31.341Z,1015.22
2016-12-13T11:44:31.323Z,1015.17
2016-12-13T11:45:31.304Z,1015.22
2016-12-13T11:46:31.285Z,1015.2
2016-12-13T11:47:31.268Z,1015.16
2016-12-13T11:48:31.250Z,1015.18
2016-12-13T11:49:31.231Z,1015.2
2016-12-13T11:50:31.214Z,1015.17
2016-12-13T11:51:31.196Z,1015.14
2016-12-13T11:52:31.178Z,1015.2
2016-12-13T11:53:31.162Z,1015.2
2016-12-13T11:54:31.143Z,1015.21
2016-12-13T11:55:31.125Z,1015.2
2016-12-13T11:56:31.107Z,1015.26
2016-12-13T11:57:31.089Z,1015.23
2016-12-13T11:58:31.071Z,1015.22
2016-12-13T11:59:31.052Z,1015.23
2016-12-13T12:00:31.034Z,1015.2
2016-12-13T12:01:31.017Z,1015.21
2016-12-13T12:02:30.999Z,1015.21
2016-12-13T12:03:30.980Z,1015.22
2016-12-13T12:04:30.964Z,1015.21
2016-12-13T12:05:30.963Z,1015.19
2016-12-13T12:06:30.934Z,1015.24
2016-12-13T12:07:30.911Z,1015.24